»·PEaware :: SOLAR25 KEND-KEND

SOLAR25 :: KEND-KEND

FLIGHT INFORMATION

Flight Status: Arrived
Operator: Unknown
More flights by this operator :: More flights under this callsign
Pilot: Vance 33rd/8th FTS (21820)
Aircraft: BEECH AIRCRAFT T-6A TEXAN
(TEX2)
More flights by this aircraft type
Origin: KEND Vance AFB
United States
Destination: KEND Vance AFB
United States
More flights between these airports :: More routes between these airports
Route: PATTERNS
File this flight plan on PilotEdge
Remarks:
Altitude:
(Current/Filed)
null
Speed:
(Current/Filed)
0kts
Departed: 30-Sep-22 08:20 AM
Arrived: 30-Sep-22 08:57 AM
Distance/Time
Traveled:
1nm/0:37
Distance/Time
To Go:
Arrived

Flight Plot

Page will automatically refresh every two minutes.

Flight plan parsing failed; only flown route is shown


Map Options




Map Legend


Flown Route
Filed Route
Departure Airport
Arrival Airport
Navaid (VOR, NDB)
Fix

Horizontal Profiles

Position Reports

Time Latitude Longitude Heading Altitude Ground
Speed
30-Sep-22 08:14 36.346889 -97.910128 223 1310ft 0kts
30-Sep-22 08:15 36.346889 -97.910128 223 1310ft 0kts
30-Sep-22 08:16 36.346889 -97.910128 223 1310ft 0kts
30-Sep-22 08:17 36.346889 -97.910128 223 1310ft 0kts
30-Sep-22 08:18 36.346618 -97.911044 181 1310ft 2kts
30-Sep-22 08:19 36.313462 -97.908903 169 1921ft 187kts
30-Sep-22 08:20 36.265753 -97.896081 167 4971ft 169kts
30-Sep-22 08:21 36.238680 -97.855403 23 5013ft 237kts
30-Sep-22 08:22 36.301206 -97.878012 339 5070ft 242kts
30-Sep-22 08:23 36.364541 -97.907510 339 5026ft 244kts
30-Sep-22 08:24 36.431215 -97.910199 1 5011ft 241kts
30-Sep-22 08:25 36.498387 -97.908659 1 5061ft 242kts
30-Sep-22 08:26 36.566316 -97.906420 4 4951ft 244kts
30-Sep-22 08:27 36.633835 -97.907918 359 4989ft 242kts
30-Sep-22 08:28 36.701543 -97.910045 359 3911ft 242kts
30-Sep-22 08:29 36.739194 -97.947079 267 2922ft 217kts
30-Sep-22 08:30 36.738860 -98.015893 281 2881ft 208kts
30-Sep-22 08:31 36.775351 -98.072903 354 2205ft 217kts
30-Sep-22 08:32 36.829594 -98.079422 269 2251ft 193kts
30-Sep-22 08:33 36.797463 -98.124953 176 2329ft 199kts
30-Sep-22 08:34 36.749211 -98.121643 181 2309ft 207kts
30-Sep-22 08:35 36.728792 -98.110840 0 2199ft 146kts
30-Sep-22 08:36 36.738916 -98.123481 182 1231ft 108kts
30-Sep-22 08:37 36.706581 -98.114833 103 2971ft 142kts
30-Sep-22 08:38 36.707169 -98.064496 89 5453ft 178kts
30-Sep-22 08:39 36.693023 -97.994266 114 6550ft 235kts
30-Sep-22 08:40 36.671711 -97.915714 104 6962ft 242kts
30-Sep-22 08:41 36.654304 -97.834123 126 6938ft 249kts
30-Sep-22 08:42 36.590330 -97.809676 171 6251ft 245kts
30-Sep-22 08:43 36.530357 -97.814367 238 3210ft 210kts
30-Sep-22 08:44 36.491012 -97.861220 211 2765ft 210kts
30-Sep-22 08:45 36.450050 -97.906663 182 2460ft 204kts
30-Sep-22 08:46 36.393415 -97.907286 179 2274ft 204kts
30-Sep-22 08:47 36.337169 -97.910403 163 2408ft 189kts
30-Sep-22 08:48 36.358576 -97.907213 230 1807ft 118kts
30-Sep-22 08:49 36.325648 -97.911243 182 1889ft 139kts
30-Sep-22 08:50 36.316176 -97.873334 5 2251ft 208kts
30-Sep-22 08:51 36.372669 -97.855313 358 2279ft 216kts
30-Sep-22 08:52 36.393598 -97.896996 229 2302ft 208kts
30-Sep-22 08:53 36.336566 -97.911833 184 2149ft 218kts
30-Sep-22 08:54 36.354617 -97.900021 357 2189ft 119kts
30-Sep-22 08:55 36.337688 -97.910985 184 1310ft 69kts
30-Sep-22 08:56 36.333198 -97.910882 97 1310ft 0kts
30-Sep-22 09:00 36.346889 -97.910128 223 1310ft 0kts
30-Sep-22 09:01 36.346067 -97.909433 179 1310ft 11kts
30-Sep-22 09:02 36.342220 -97.909409 180 1310ft 16kts
30-Sep-22 09:03 36.337138 -97.909368 179 1310ft 19kts
30-Sep-22 09:04 36.333945 -97.910159 228 1310ft 0kts
30-Sep-22 09:05 36.333571 -97.911063 353 1310ft 5kts
30-Sep-22 09:06 36.353869 -97.911230 358 1707ft 162kts
30-Sep-22 09:07 36.359368 -97.859672 150 2397ft 220kts
30-Sep-22 09:08 36.296299 -97.853432 178 2352ft 234kts
30-Sep-22 09:09 36.253661 -97.884271 270 2323ft 224kts
30-Sep-22 09:10 36.298191 -97.911613 4 1838ft 158kts
30-Sep-22 09:11 36.332142 -97.911139 0 1328ft 108kts

Navigation Log

Ident Type
Flight plan parsing failed, navigation log unavailable